sensor_id;sensor_type;location;lat;lon;timestamp;pressure;altitude;pressure_sealevel;temperature;humidity
69689;BME280;56932;38.402;-96.176;2022-09-09T00:00:21;96969.20;;;23.03;25.36
69689;BME280;56932;38.402;-96.176;2022-09-09T00:02:49;96965.38;;;22.21;26.20
69689;BME280;56932;38.402;-96.176;2022-09-09T00:05:19;96962.08;;;22.05;26.39
69689;BME280;56932;38.402;-96.176;2022-09-09T00:07:43;96957.94;;;22.69;25.99
69689;BME280;56932;38.402;-96.176;2022-09-09T00:10:13;96963.52;;;22.27;26.08
69689;BME280;56932;38.402;-96.176;2022-09-09T00:12:34;96958.70;;;22.41;26.37
69689;BME280;56932;38.402;-96.176;2022-09-09T00:14:56;96957.85;;;22.27;26.45
69689;BME280;56932;38.402;-96.176;2022-09-09T00:17:26;96960.34;;;22.21;25.91
69689;BME280;56932;38.402;-96.176;2022-09-09T00:19:49;96957.91;;;22.19;26.24
69689;BME280;56932;38.402;-96.176;2022-09-09T00:22:17;96952.83;;;22.05;26.20
69689;BME280;56932;38.402;-96.176;2022-09-09T00:24:40;96953.33;;;22.33;25.84
69689;BME280;56932;38.402;-96.176;2022-09-09T00:27:06;96951.15;;;22.16;25.95
69689;BME280;56932;38.402;-96.176;2022-09-09T00:29:32;96953.43;;;22.18;25.65
69689;BME280;56932;38.402;-96.176;2022-09-09T00:31:55;96955.12;;;22.41;25.98
69689;BME280;56932;38.402;-96.176;2022-09-09T00:34:20;96951.85;;;21.70;26.10
69689;BME280;56932;38.402;-96.176;2022-09-09T00:36:42;96948.63;;;21.80;26.16
69689;BME280;56932;38.402;-96.176;2022-09-09T00:39:17;96946.05;;;21.70;26.18
69689;BME280;56932;38.402;-96.176;2022-09-09T00:41:44;96946.33;;;21.69;25.84
69689;BME280;56932;38.402;-96.176;2022-09-09T00:44:09;96946.25;;;21.70;26.30
69689;BME280;56932;38.402;-96.176;2022-09-09T00:48:57;96951.08;;;21.90;25.76
69689;BME280;56932;38.402;-96.176;2022-09-09T00:51:17;96949.96;;;21.45;25.96
69689;BME280;56932;38.402;-96.176;2022-09-09T00:56:12;96946.62;;;21.37;26.43
69689;BME280;56932;38.402;-96.176;2022-09-09T00:58:31;96940.89;;;21.69;25.87
69689;BME280;56932;38.402;-96.176;2022-09-09T01:01:02;96940.86;;;22.14;25.44
69689;BME280;56932;38.402;-96.176;2022-09-09T01:03:29;96932.72;;;21.72;25.67
69689;BME280;56932;38.402;-96.176;2022-09-09T01:05:56;96932.79;;;21.38;26.09
69689;BME280;56932;38.402;-96.176;2022-09-09T01:08:24;96933.82;;;21.40;25.52
69689;BME280;56932;38.402;-96.176;2022-09-09T01:10:43;96936.39;;;21.35;26.01
69689;BME280;56932;38.402;-96.176;2022-09-09T01:13:11;96936.69;;;21.12;26.34
69689;BME280;56932;38.402;-96.176;2022-09-09T01:15:31;96942.24;;;21.56;25.90
69689;BME280;56932;38.402;-96.176;2022-09-09T01:18:00;96944.86;;;21.11;26.27
69689;BME280;56932;38.402;-96.176;2022-09-09T01:20:24;96946.62;;;21.29;26.07
69689;BME280;56932;38.402;-96.176;2022-09-09T01:22:56;96949.10;;;21.59;25.82
69689;BME280;56932;38.402;-96.176;2022-09-09T01:25:21;96954.69;;;21.43;25.84
69689;BME280;56932;38.402;-96.176;2022-09-09T01:27:37;96954.31;;;21.37;26.00
69689;BME280;56932;38.402;-96.176;2022-09-09T01:30:08;96957.18;;;21.29;25.87
69689;BME280;56932;38.402;-96.176;2022-09-09T01:34:53;96954.69;;;21.30;26.02
69689;BME280;56932;38.402;-96.176;2022-09-09T01:37:19;96957.78;;;21.49;25.45
69689;BME280;56932;38.402;-96.176;2022-09-09T01:39:45;96958.67;;;20.60;26.12
69689;BME280;56932;38.402;-96.176;2022-09-09T01:42:13;96960.98;;;20.71;26.19
69689;BME280;56932;38.402;-96.176;2022-09-09T01:44:37;96962.27;;;20.88;26.07
69689;BME280;56932;38.402;-96.176;2022-09-09T01:47:01;96967.43;;;21.19;25.55
69689;BME280;56932;38.402;-96.176;2022-09-09T01:49:26;96964.15;;;20.40;26.71
69689;BME280;56932;38.402;-96.176;2022-09-09T01:51:54;96968.75;;;20.79;26.41
69689;BME280;56932;38.402;-96.176;2022-09-09T01:54:18;96970.39;;;20.40;26.52
69689;BME280;56932;38.402;-96.176;2022-09-09T01:56:48;96969.77;;;20.33;26.93
69689;BME280;56932;38.402;-96.176;2022-09-09T02:01:42;96973.09;;;20.31;26.74
69689;BME280;56932;38.402;-96.176;2022-09-09T02:04:00;96974.95;;;20.51;26.62
69689;BME280;56932;38.402;-96.176;2022-09-09T02:06:28;96974.14;;;20.64;26.82
69689;BME280;56932;38.402;-96.176;2022-09-09T02:08:52;96978.35;;;21.45;25.89
69689;BME280;56932;38.402;-96.176;2022-09-09T02:11:17;96982.17;;;20.96;26.58
69689;BME280;56932;38.402;-96.176;2022-09-09T02:13:43;96986.78;;;21.11;26.80
69689;BME280;56932;38.402;-96.176;2022-09-09T02:16:10;96989.22;;;21.71;26.44
69689;BME280;56932;38.402;-96.176;2022-09-09T02:18:36;96989.72;;;21.04;27.53
69689;BME280;56932;38.402;-96.176;2022-09-09T02:20:58;96986.56;;;21.78;27.40
69689;BME280;56932;38.402;-96.176;2022-09-09T02:23:23;96987.60;;;21.30;28.03
69689;BME280;56932;38.402;-96.176;2022-09-09T02:25:49;96988.63;;;21.69;27.76
69689;BME280;56932;38.402;-96.176;2022-09-09T02:28:15;96991.45;;;21.32;27.93
69689;BME280;56932;38.402;-96.176;2022-09-09T02:30:40;96992.42;;;21.95;28.28
69689;BME280;56932;38.402;-96.176;2022-09-09T02:33:06;96993.60;;;21.64;28.68
69689;BME280;56932;38.402;-96.176;2022-09-09T02:35:31;96994.50;;;21.87;28.67
69689;BME280;56932;38.402;-96.176;2022-09-09T02:37:58;96991.82;;;22.19;28.37
69689;BME280;56932;38.402;-96.176;2022-09-09T02:40:21;96992.06;;;22.12;28.91
69689;BME280;56932;38.402;-96.176;2022-09-09T02:42:48;96989.36;;;21.87;28.84
69689;BME280;56932;38.402;-96.176;2022-09-09T02:45:14;96984.31;;;21.98;29.00
69689;BME280;56932;38.402;-96.176;2022-09-09T02:47:41;96985.26;;;22.12;29.54
69689;BME280;56932;38.402;-96.176;2022-09-09T02:50:10;96991.20;;;22.28;29.63
69689;BME280;56932;38.402;-96.176;2022-09-09T02:52:35;96994.94;;;22.05;29.83
69689;BME280;56932;38.402;-96.176;2022-09-09T02:54:59;96998.76;;;22.42;29.61
69689;BME280;56932;38.402;-96.176;2022-09-09T02:57:23;97002.62;;;22.27;29.63
69689;BME280;56932;38.402;-96.176;2022-09-09T02:59:47;97002.38;;;22.81;29.77
69689;BME280;56932;38.402;-96.176;2022-09-09T03:02:11;97005.01;;;22.65;30.08
69689;BME280;56932;38.402;-96.176;2022-09-09T03:04:36;97007.85;;;22.86;29.99
69689;BME280;56932;38.402;-96.176;2022-09-09T03:07:02;97009.53;;;22.74;30.07
69689;BME280;56932;38.402;-96.176;2022-09-09T03:09:27;97008.12;;;22.06;30.68
69689;BME280;56932;38.402;-96.176;2022-09-09T03:11:53;97010.64;;;22.51;30.62
69689;BME280;56932;38.402;-96.176;2022-09-09T03:14:18;97009.22;;;22.20;30.79
69689;BME280;56932;38.402;-96.176;2022-09-09T03:16:44;97010.06;;;22.44;30.65
69689;BME280;56932;38.402;-96.176;2022-09-09T03:19:10;97009.34;;;22.84;30.89
69689;BME280;56932;38.402;-96.176;2022-09-09T03:21:34;97012.27;;;22.83;30.50
69689;BME280;56932;38.402;-96.176;2022-09-09T03:24:00;97014.17;;;22.84;31.12
69689;BME280;56932;38.402;-96.176;2022-09-09T03:26:25;97018.48;;;22.50;31.09
69689;BME280;56932;38.402;-96.176;2022-09-09T03:28:51;97015.52;;;22.57;31.72
69689;BME280;56932;38.402;-96.176;2022-09-09T03:31:16;97021.40;;;22.65;31.17
69689;BME280;56932;38.402;-96.176;2022-09-09T03:33:41;97023.56;;;22.64;31.30
69689;BME280;56932;38.402;-96.176;2022-09-09T03:36:07;97024.11;;;22.59;31.43
69689;BME280;56932;38.402;-96.176;2022-09-09T03:38:32;97024.38;;;22.67;31.48
69689;BME280;56932;38.402;-96.176;2022-09-09T03:40:58;97022.36;;;22.89;31.61
69689;BME280;56932;38.402;-96.176;2022-09-09T03:43:24;97018.28;;;22.50;31.79
69689;BME280;56932;38.402;-96.176;2022-09-09T03:45:49;97013.48;;;22.43;31.97
69689;BME280;56932;38.402;-96.176;2022-09-09T03:48:14;97011.89;;;22.93;31.16
69689;BME280;56932;38.402;-96.176;2022-09-09T03:50:44;97010.23;;;22.80;31.95
69689;BME280;56932;38.402;-96.176;2022-09-09T03:53:05;97008.25;;;22.96;31.59
69689;BME280;56932;38.402;-96.176;2022-09-09T03:55:30;97005.64;;;22.83;31.82
69689;BME280;56932;38.402;-96.176;2022-09-09T03:57:56;97007.32;;;23.23;31.43
69689;BME280;56932;38.402;-96.176;2022-09-09T04:00:21;97005.19;;;22.94;31.82
69689;BME280;56932;38.402;-96.176;2022-09-09T04:02:47;97007.79;;;22.95;32.22
69689;BME280;56932;38.402;-96.176;2022-09-09T04:05:13;97012.75;;;22.62;32.41
69689;BME280;56932;38.402;-96.176;2022-09-09T04:07:38;97013.72;;;22.61;32.60
69689;BME280;56932;38.402;-96.176;2022-09-09T04:10:04;97017.31;;;22.74;32.50
69689;BME280;56932;38.402;-96.176;2022-09-09T04:12:29;97019.62;;;22.62;32.74
69689;BME280;56932;38.402;-96.176;2022-09-09T04:14:54;97017.36;;;22.88;32.52
69689;BME280;56932;38.402;-96.176;2022-09-09T04:17:20;97013.14;;;22.96;32.51
69689;BME280;56932;38.402;-96.176;2022-09-09T04:19:45;97011.42;;;22.90;33.00
69689;BME280;56932;38.402;-96.176;2022-09-09T04:22:11;97006.62;;;22.54;33.18
69689;BME280;56932;38.402;-96.176;2022-09-09T04:24:36;97007.59;;;23.08;32.63
69689;BME280;56932;38.402;-96.176;2022-09-09T04:27:02;97008.82;;;22.94;33.19
69689;BME280;56932;38.402;-96.176;2022-09-09T04:29:27;97009.23;;;22.85;33.09
69689;BME280;56932;38.402;-96.176;2022-09-09T04:31:53;97009.72;;;22.97;33.04
69689;BME280;56932;38.402;-96.176;2022-09-09T04:34:18;97008.31;;;23.15;32.82
69689;BME280;56932;38.402;-96.176;2022-09-09T04:36:43;97006.91;;;23.31;32.66
69689;BME280;56932;38.402;-96.176;2022-09-09T04:39:09;97008.27;;;23.40;32.66
69689;BME280;56932;38.402;-96.176;2022-09-09T04:41:34;97014.81;;;23.43;32.67
69689;BME280;56932;38.402;-96.176;2022-09-09T04:44:00;97017.55;;;23.27;32.90
69689;BME280;56932;38.402;-96.176;2022-09-09T04:46:25;97016.85;;;22.86;33.47
69689;BME280;56932;38.402;-96.176;2022-09-09T04:48:51;97019.03;;;23.32;32.99
69689;BME280;56932;38.402;-96.176;2022-09-09T04:51:16;97016.87;;;22.73;33.48
69689;BME280;56932;38.402;-96.176;2022-09-09T04:53:42;97018.88;;;23.06;33.37
69689;BME280;56932;38.402;-96.176;2022-09-09T04:56:09;97023.01;;;23.16;33.33
69689;BME280;56932;38.402;-96.176;2022-09-09T04:58:32;97027.00;;;23.39;33.10
69689;BME280;56932;38.402;-96.176;2022-09-09T05:01:03;97025.30;;;23.19;33.09
69689;BME280;56932;38.402;-96.176;2022-09-09T05:03:24;97023.97;;;22.99;33.39
69689;BME280;56932;38.402;-96.176;2022-09-09T05:05:49;97020.78;;;23.19;33.44
69689;BME280;56932;38.402;-96.176;2022-09-09T05:08:15;97017.19;;;22.73;33.46
69689;BME280;56932;38.402;-96.176;2022-09-09T05:10:39;97009.85;;;23.12;33.37
69689;BME280;56932;38.402;-96.176;2022-09-09T05:13:05;97004.44;;;23.44;33.61
69689;BME280;56932;38.402;-96.176;2022-09-09T05:15:31;97003.36;;;23.28;33.54
69689;BME280;56932;38.402;-96.176;2022-09-09T05:17:58;97005.02;;;22.98;33.94
69689;BME280;56932;38.402;-96.176;2022-09-09T05:20:21;97005.34;;;23.30;33.58
69689;BME280;56932;38.402;-96.176;2022-09-09T05:22:47;97003.51;;;23.63;33.28
69689;BME280;56932;38.402;-96.176;2022-09-09T05:25:12;97003.86;;;23.10;33.05
69689;BME280;56932;38.402;-96.176;2022-09-09T05:27:38;97002.55;;;23.40;33.60
69689;BME280;56932;38.402;-96.176;2022-09-09T05:30:04;97008.85;;;23.26;33.79
69689;BME280;56932;38.402;-96.176;2022-09-09T05:32:30;97013.72;;;23.28;33.85
69689;BME280;56932;38.402;-96.176;2022-09-09T05:34:54;97013.33;;;23.15;34.02
69689;BME280;56932;38.402;-96.176;2022-09-09T05:37:20;97013.50;;;22.89;34.14
69689;BME280;56932;38.402;-96.176;2022-09-09T05:39:45;97014.76;;;23.13;33.86
69689;BME280;56932;38.402;-96.176;2022-09-09T05:42:11;97015.81;;;23.09;34.22
69689;BME280;56932;38.402;-96.176;2022-09-09T05:44:36;97020.12;;;23.26;34.03
69689;BME280;56932;38.402;-96.176;2022-09-09T05:47:01;97020.52;;;23.89;33.29
69689;BME280;56932;38.402;-96.176;2022-09-09T05:49:27;97020.10;;;23.28;33.79
69689;BME280;56932;38.402;-96.176;2022-09-09T05:51:52;97023.43;;;23.64;33.66
69689;BME280;56932;38.402;-96.176;2022-09-09T05:54:18;97018.07;;;22.91;34.32
69689;BME280;56932;38.402;-96.176;2022-09-09T05:56:44;97018.46;;;23.61;33.79
69689;BME280;56932;38.402;-96.176;2022-09-09T05:59:09;97016.25;;;23.27;34.25
69689;BME280;56932;38.402;-96.176;2022-09-09T06:01:36;97013.51;;;23.29;34.28
69689;BME280;56932;38.402;-96.176;2022-09-09T06:04:00;97012.99;;;23.25;34.72
69689;BME280;56932;38.402;-96.176;2022-09-09T06:06:27;97015.19;;;23.37;34.30
69689;BME280;56932;38.402;-96.176;2022-09-09T06:08:52;97017.36;;;23.53;34.10
69689;BME280;56932;38.402;-96.176;2022-09-09T06:11:17;97016.79;;;23.33;34.43
69689;BME280;56932;38.402;-96.176;2022-09-09T06:13:42;97019.46;;;24.02;33.61
69689;BME280;56932;38.402;-96.176;2022-09-09T06:16:09;97020.13;;;23.57;34.18
69689;BME280;56932;38.402;-96.176;2022-09-09T06:18:32;97015.27;;;23.46;34.43
69689;BME280;56932;38.402;-96.176;2022-09-09T06:20:58;97013.38;;;23.31;34.71
69689;BME280;56932;38.402;-96.176;2022-09-09T06:23:23;97010.82;;;23.41;34.61
69689;BME280;56932;38.402;-96.176;2022-09-09T06:25:48;97012.71;;;23.41;34.67
69689;BME280;56932;38.402;-96.176;2022-09-09T06:28:14;97010.21;;;23.19;34.31
69689;BME280;56932;38.402;-96.176;2022-09-09T06:30:39;97010.00;;;23.93;34.03
69689;BME280;56932;38.402;-96.176;2022-09-09T06:33:05;97011.66;;;23.39;34.72
69689;BME280;56932;38.402;-96.176;2022-09-09T06:35:30;97011.94;;;23.37;34.77
69689;BME280;56932;38.402;-96.176;2022-09-09T06:37:56;97006.81;;;23.14;35.10
69689;BME280;56932;38.402;-96.176;2022-09-09T06:40:21;97006.75;;;23.69;34.41
69689;BME280;56932;38.402;-96.176;2022-09-09T06:42:47;97009.81;;;23.32;34.86
69689;BME280;56932;38.402;-96.176;2022-09-09T06:45:12;97010.11;;;22.83;34.92
69689;BME280;56932;38.402;-96.176;2022-09-09T06:47:38;97007.44;;;23.35;34.93
69689;BME280;56932;38.402;-96.176;2022-09-09T06:50:03;97010.01;;;23.54;34.74
69689;BME280;56932;38.402;-96.176;2022-09-09T06:52:28;97009.02;;;23.31;35.04
69689;BME280;56932;38.402;-96.176;2022-09-09T06:54:54;97007.70;;;23.26;35.11
69689;BME280;56932;38.402;-96.176;2022-09-09T06:57:19;97011.40;;;23.49;34.55
69689;BME280;56932;38.402;-96.176;2022-09-09T06:59:45;97014.45;;;23.55;34.82
69689;BME280;56932;38.402;-96.176;2022-09-09T07:02:11;97009.54;;;23.44;34.67
69689;BME280;56932;38.402;-96.176;2022-09-09T07:04:36;97008.26;;;23.33;35.13
69689;BME280;56932;38.402;-96.176;2022-09-09T07:07:01;97005.78;;;23.17;35.35
69689;BME280;56932;38.402;-96.176;2022-09-09T07:09:27;97006.96;;;23.42;34.44
69689;BME280;56932;38.402;-96.176;2022-09-09T07:11:52;97006.87;;;23.27;35.28
69689;BME280;56932;38.402;-96.176;2022-09-09T07:14:18;97007.19;;;23.26;35.32
69689;BME280;56932;38.402;-96.176;2022-09-09T07:16:44;97009.55;;;23.45;35.10
69689;BME280;56932;38.402;-96.176;2022-09-09T07:19:09;97008.89;;;23.24;35.37
69689;BME280;56932;38.402;-96.176;2022-09-09T07:21:34;97011.32;;;23.26;35.37
69689;BME280;56932;38.402;-96.176;2022-09-09T07:23:59;97011.00;;;23.39;35.23
69689;BME280;56932;38.402;-96.176;2022-09-09T07:26:27;97010.47;;;23.99;34.24
69689;BME280;56932;38.402;-96.176;2022-09-09T07:28:50;97010.72;;;23.14;35.30
69689;BME280;56932;38.402;-96.176;2022-09-09T07:31:18;97006.87;;;23.57;34.75
69689;BME280;56932;38.402;-96.176;2022-09-09T07:33:41;97002.93;;;23.35;35.32
69689;BME280;56932;38.402;-96.176;2022-09-09T07:36:14;97003.86;;;23.49;35.19
69689;BME280;56932;38.402;-96.176;2022-09-09T07:38:32;97002.48;;;23.38;35.36
69689;BME280;56932;38.402;-96.176;2022-09-09T07:41:03;96997.01;;;23.43;35.62
69689;BME280;56932;38.402;-96.176;2022-09-09T07:43:26;97000.45;;;23.53;34.87
69689;BME280;56932;38.402;-96.176;2022-09-09T07:45:57;96997.23;;;23.41;35.39
69689;BME280;56932;38.402;-96.176;2022-09-09T07:48:14;96996.18;;;23.00;35.31
69689;BME280;56932;38.402;-96.176;2022-09-09T07:50:39;96995.09;;;23.41;35.42
69689;BME280;56932;38.402;-96.176;2022-09-09T07:53:05;96994.03;;;23.23;35.65
69689;BME280;56932;38.402;-96.176;2022-09-09T07:55:30;96990.73;;;23.28;35.64
69689;BME280;56932;38.402;-96.176;2022-09-09T07:57:56;96991.61;;;23.69;34.77
69689;BME280;56932;38.402;-96.176;2022-09-09T08:00:21;96992.81;;;23.39;35.23
69689;BME280;56932;38.402;-96.176;2022-09-09T08:02:47;96997.64;;;23.37;35.31
69689;BME280;56932;38.402;-96.176;2022-09-09T08:05:12;96998.08;;;22.79;35.72
69689;BME280;56932;38.402;-96.176;2022-09-09T08:07:37;96999.56;;;23.43;35.53
69689;BME280;56932;38.402;-96.176;2022-09-09T08:10:04;97000.67;;;23.36;35.66
69689;BME280;56932;38.402;-96.176;2022-09-09T08:12:28;97001.40;;;23.41;35.64
69689;BME280;56932;38.402;-96.176;2022-09-09T08:14:53;97002.59;;;23.35;35.42
69689;BME280;56932;38.402;-96.176;2022-09-09T08:17:19;97003.38;;;23.26;35.55
69689;BME280;56932;38.402;-96.176;2022-09-09T08:19:45;97002.02;;;23.76;35.25
69689;BME280;56932;38.402;-96.176;2022-09-09T08:22:10;97002.79;;;23.66;35.38
69689;BME280;56932;38.402;-96.176;2022-09-09T08:24:35;96999.42;;;23.60;35.82
69689;BME280;56932;38.402;-96.176;2022-09-09T08:27:01;96998.88;;;23.40;35.48
69689;BME280;56932;38.402;-96.176;2022-09-09T08:29:26;96994.96;;;23.47;35.71
69689;BME280;56932;38.402;-96.176;2022-09-09T08:31:53;96994.71;;;23.39;35.80
69689;BME280;56932;38.402;-96.176;2022-09-09T08:34:17;96993.92;;;23.12;35.48
69689;BME280;56932;38.402;-96.176;2022-09-09T08:36:44;96998.07;;;23.72;35.38
69689;BME280;56932;38.402;-96.176;2022-09-09T08:39:09;97000.83;;;23.51;35.38
69689;BME280;56932;38.402;-96.176;2022-09-09T08:41:41;97002.82;;;23.34;35.66
69689;BME280;56932;38.402;-96.176;2022-09-09T08:44:04;97001.20;;;23.86;35.22
69689;BME280;56932;38.402;-96.176;2022-09-09T08:46:27;96998.43;;;23.30;35.99
69689;BME280;56932;38.402;-96.176;2022-09-09T08:48:53;97000.34;;;23.29;36.03
69689;BME280;56932;38.402;-96.176;2022-09-09T08:51:15;97006.61;;;23.22;35.57
69689;BME280;56932;38.402;-96.176;2022-09-09T08:53:43;97010.77;;;23.81;35.18
69689;BME280;56932;38.402;-96.176;2022-09-09T08:56:11;97013.53;;;24.12;35.05
69689;BME280;56932;38.402;-96.176;2022-09-09T08:58:33;97014.74;;;23.93;35.00
69689;BME280;56932;38.402;-96.176;2022-09-09T09:01:05;97016.05;;;23.46;35.90
69689;BME280;56932;38.402;-96.176;2022-09-09T09:03:30;97013.97;;;23.32;36.13
69689;BME280;56932;38.402;-96.176;2022-09-09T09:05:54;97010.31;;;23.57;35.82
69689;BME280;56932;38.402;-96.176;2022-09-09T09:08:20;97004.17;;;22.80;36.19
69689;BME280;56932;38.402;-96.176;2022-09-09T09:10:46;97001.91;;;23.75;35.60
69689;BME280;56932;38.402;-96.176;2022-09-09T09:13:06;97005.87;;;23.40;36.06
69689;BME280;56932;38.402;-96.176;2022-09-09T09:15:32;97008.12;;;23.18;36.36
69689;BME280;56932;38.402;-96.176;2022-09-09T09:17:55;97007.93;;;23.35;36.16
69689;BME280;56932;38.402;-96.176;2022-09-09T09:20:27;97004.68;;;23.15;35.79
69689;BME280;56932;38.402;-96.176;2022-09-09T09:22:49;97006.45;;;23.43;35.77
69689;BME280;56932;38.402;-96.176;2022-09-09T09:25:16;97006.50;;;23.50;35.71
69689;BME280;56932;38.402;-96.176;2022-09-09T09:27:40;97006.43;;;23.50;36.00
69689;BME280;56932;38.402;-96.176;2022-09-09T09:30:11;97002.76;;;23.43;36.12
69689;BME280;56932;38.402;-96.176;2022-09-09T09:32:30;97001.43;;;23.15;36.20
69689;BME280;56932;38.402;-96.176;2022-09-09T09:34:55;96996.87;;;23.42;36.15
69689;BME280;56932;38.402;-96.176;2022-09-09T09:37:23;96993.05;;;23.46;35.47
69689;BME280;56932;38.402;-96.176;2022-09-09T09:39:43;96991.71;;;23.42;36.16
69689;BME280;56932;38.402;-96.176;2022-09-09T09:42:11;96995.61;;;23.35;36.28
69689;BME280;56932;38.402;-96.176;2022-09-09T09:44:34;96999.50;;;23.18;36.52
69689;BME280;56932;38.402;-96.176;2022-09-09T09:47:07;97005.59;;;23.49;36.11
69689;BME280;56932;38.402;-96.176;2022-09-09T09:49:25;97010.30;;;23.77;35.75
69689;BME280;56932;38.402;-96.176;2022-09-09T09:51:50;97013.06;;;23.25;36.47
69689;BME280;56932;38.402;-96.176;2022-09-09T09:54:21;97011.10;;;23.14;36.02
69689;BME280;56932;38.402;-96.176;2022-09-09T09:56:42;97009.44;;;23.17;36.31
69689;BME280;56932;38.402;-96.176;2022-09-09T10:01:33;97010.17;;;23.64;36.01
69689;BME280;56932;38.402;-96.176;2022-09-09T10:04:01;97011.88;;;23.41;36.34
69689;BME280;56932;38.402;-96.176;2022-09-09T10:06:31;97014.79;;;23.19;36.34
69689;BME280;56932;38.402;-96.176;2022-09-09T10:08:49;97015.63;;;23.38;36.38
69689;BME280;56932;38.402;-96.176;2022-09-09T10:11:26;97010.27;;;22.44;36.66
69689;BME280;56932;38.402;-96.176;2022-09-09T10:13:46;97006.81;;;23.41;36.35
69689;BME280;56932;38.402;-96.176;2022-09-09T10:16:17;97005.80;;;24.24;35.23
69689;BME280;56932;38.402;-96.176;2022-09-09T10:18:39;97008.71;;;23.36;36.15
69689;BME280;56932;38.402;-96.176;2022-09-09T10:21:02;97011.96;;;23.58;35.87
69689;BME280;56932;38.402;-96.176;2022-09-09T10:23:33;97008.56;;;23.41;36.08
69689;BME280;56932;38.402;-96.176;2022-09-09T10:25:58;97010.33;;;23.31;36.24
69689;BME280;56932;38.402;-96.176;2022-09-09T10:28:27;97012.05;;;23.21;36.00
69689;BME280;56932;38.402;-96.176;2022-09-09T10:30:44;97015.31;;;23.66;35.44
69689;BME280;56932;38.402;-96.176;2022-09-09T10:33:08;97012.62;;;23.63;35.48
69689;BME280;56932;38.402;-96.176;2022-09-09T10:35:31;97015.78;;;23.65;35.84
69689;BME280;56932;38.402;-96.176;2022-09-09T10:40:28;97019.21;;;22.75;36.64
69689;BME280;56932;38.402;-96.176;2022-09-09T10:42:44;97019.00;;;23.40;36.16
69689;BME280;56932;38.402;-96.176;2022-09-09T10:45:18;97016.66;;;23.18;36.47
69689;BME280;56932;38.402;-96.176;2022-09-09T10:52:32;97013.51;;;23.18;36.79
69689;BME280;56932;38.402;-96.176;2022-09-09T10:54:57;97016.42;;;23.54;36.35
69689;BME280;56932;38.402;-96.176;2022-09-09T10:57:24;97016.02;;;23.16;36.62
69689;BME280;56932;38.402;-96.176;2022-09-09T10:59:46;97018.90;;;23.58;36.34
69689;BME280;56932;38.402;-96.176;2022-09-09T11:02:15;97021.73;;;23.28;36.73
69689;BME280;56932;38.402;-96.176;2022-09-09T11:04:38;97019.76;;;24.18;35.56
69689;BME280;56932;38.402;-96.176;2022-09-09T11:07:02;97015.90;;;23.66;36.26
69689;BME280;56932;38.402;-96.176;2022-09-09T11:09:27;97015.54;;;23.44;35.90
69689;BME280;56932;38.402;-96.176;2022-09-09T11:11:53;97019.98;;;23.56;36.43
69689;BME280;56932;38.402;-96.176;2022-09-09T11:14:21;97017.12;;;23.25;36.18
69689;BME280;56932;38.402;-96.176;2022-09-09T11:16:45;97013.33;;;23.16;36.69
69689;BME280;56932;38.402;-96.176;2022-09-09T11:19:13;97006.67;;;23.76;36.25
69689;BME280;56932;38.402;-96.176;2022-09-09T11:21:35;97003.35;;;23.43;36.63
69689;BME280;56932;38.402;-96.176;2022-09-09T11:24:01;97007.03;;;23.53;36.54
69689;BME280;56932;38.402;-96.176;2022-09-09T11:26:30;97006.63;;;23.49;36.58
69689;BME280;56932;38.402;-96.176;2022-09-09T11:28:59;97006.99;;;23.55;36.48
69689;BME280;56932;38.402;-96.176;2022-09-09T11:36:20;97004.68;;;23.63;36.40
69689;BME280;56932;38.402;-96.176;2022-09-09T11:38:36;97009.01;;;23.41;36.41
69689;BME280;56932;38.402;-96.176;2022-09-09T11:40:59;97010.69;;;23.84;36.13
69689;BME280;56932;38.402;-96.176;2022-09-09T11:43:24;97015.03;;;23.81;35.88
69689;BME280;56932;38.402;-96.176;2022-09-09T11:45:52;97016.38;;;23.28;36.60
69689;BME280;56932;38.402;-96.176;2022-09-09T11:50:38;97019.58;;;23.45;36.64
69689;BME280;56932;38.402;-96.176;2022-09-09T11:55:30;97021.14;;;23.41;36.09
69689;BME280;56932;38.402;-96.176;2022-09-09T11:57:58;97023.34;;;23.17;36.64
69689;BME280;56932;38.402;-96.176;2022-09-09T12:02:49;97025.73;;;23.56;36.51
69689;BME280;56932;38.402;-96.176;2022-09-09T12:05:11;97026.82;;;23.07;37.17
69689;BME280;56932;38.402;-96.176;2022-09-09T12:07:38;97032.69;;;23.08;36.51
69689;BME280;56932;38.402;-96.176;2022-09-09T12:10:04;97035.32;;;23.59;36.48
69689;BME280;56932;38.402;-96.176;2022-09-09T12:12:31;97034.78;;;23.32;36.82
69689;BME280;56932;38.402;-96.176;2022-09-09T12:14:59;97042.08;;;23.84;36.14
69689;BME280;56932;38.402;-96.176;2022-09-09T12:17:19;97046.72;;;23.47;36.58
69689;BME280;56932;38.402;-96.176;2022-09-09T12:19:43;97049.83;;;23.70;36.23
69689;BME280;56932;38.402;-96.176;2022-09-09T12:22:15;97056.26;;;23.60;36.28
69689;BME280;56932;38.402;-96.176;2022-09-09T12:24:37;97055.32;;;23.71;36.15
69689;BME280;56932;38.402;-96.176;2022-09-09T12:27:04;97058.23;;;24.13;35.59
69689;BME280;56932;38.402;-96.176;2022-09-09T12:29:28;97057.26;;;23.56;35.68
69689;BME280;56932;38.402;-96.176;2022-09-09T12:31:55;97062.22;;;23.83;35.63
69689;BME280;56932;38.402;-96.176;2022-09-09T12:34:19;97066.16;;;23.40;35.84
69689;BME280;56932;38.402;-96.176;2022-09-09T12:36:41;97063.26;;;24.04;35.38
69689;BME280;56932;38.402;-96.176;2022-09-09T12:39:16;97065.60;;;23.52;35.67
69689;BME280;56932;38.402;-96.176;2022-09-09T12:41:32;97067.95;;;23.94;35.15
69689;BME280;56932;38.402;-96.176;2022-09-09T12:44:03;97074.54;;;23.62;36.01
69689;BME280;56932;38.402;-96.176;2022-09-09T12:46:30;97081.15;;;23.88;35.21
69689;BME280;56932;38.402;-96.176;2022-09-09T12:48:48;97085.70;;;24.03;35.00
69689;BME280;56932;38.402;-96.176;2022-09-09T12:51:19;97085.98;;;23.96;35.10
69689;BME280;56932;38.402;-96.176;2022-09-09T12:53:39;97087.31;;;24.36;34.57
69689;BME280;56932;38.402;-96.176;2022-09-09T12:56:06;97090.32;;;23.92;35.09
69689;BME280;56932;38.402;-96.176;2022-09-09T12:58:31;97093.52;;;23.40;36.17
69689;BME280;56932;38.402;-96.176;2022-09-09T13:00:56;97100.74;;;23.64;35.47